createdAt,value
2023-03-22T00:02:17.484Z,31.10
2023-03-22T00:04:45.717Z,30.30
2023-03-22T00:07:13.678Z,30.60
2023-03-22T00:09:41.551Z,28.40
2023-03-22T00:12:09.476Z,31.20
2023-03-22T00:14:37.592Z,28.00
2023-03-22T00:17:05.542Z,27.30
2023-03-22T00:19:34.401Z,28.30
2023-03-22T00:22:03.621Z,26.70
2023-03-22T00:24:32.016Z,28.50
2023-03-22T00:27:00.898Z,26.90
2023-03-22T00:29:28.769Z,25.60
2023-03-22T00:31:56.596Z,25.70
2023-03-22T00:34:24.528Z,28.60
2023-03-22T00:36:52.465Z,25.60
2023-03-22T00:39:21.053Z,23.70
2023-03-22T00:41:49.040Z,25.60
2023-03-22T00:44:17.072Z,26.60
2023-03-22T00:46:46.397Z,24.10
2023-03-22T00:49:15.141Z,23.80
2023-03-22T00:51:43.075Z,24.80
2023-03-22T00:54:12.038Z,22.30
2023-03-22T00:56:39.897Z,23.70
2023-03-22T00:59:14.395Z,24.20
2023-03-22T01:01:43.506Z,23.80
2023-03-22T01:04:18.101Z,23.40
2023-03-22T01:06:47.249Z,22.90
2023-03-22T01:09:15.467Z,25.20
2023-03-22T01:11:44.032Z,24.10
2023-03-22T01:14:14.125Z,23.90
2023-03-22T01:16:42.254Z,24.30
2023-03-22T01:19:10.659Z,27.70
2023-03-22T01:21:38.905Z,26.50
2023-03-22T01:24:06.992Z,28.40
2023-03-22T01:26:35.922Z,25.10
2023-03-22T01:29:04.222Z,27.20
2023-03-22T01:31:32.176Z,26.90
2023-03-22T01:34:00.231Z,27.00
2023-03-22T01:36:28.718Z,27.00
2023-03-22T01:38:57.217Z,28.40
2023-03-22T01:41:25.948Z,27.70
2023-03-22T01:44:23.146Z,30.50
2023-03-22T01:46:52.445Z,27.20
2023-03-22T01:49:26.096Z,24.00
2023-03-22T01:51:58.250Z,26.40
2023-03-22T01:54:44.944Z,24.70
2023-03-22T01:57:29.592Z,23.50
2023-03-22T02:00:00.805Z,27.10
2023-03-22T02:02:51.025Z,27.90
2023-03-22T02:05:27.719Z,26.80
2023-03-22T02:10:27.921Z,18.50
2023-03-22T02:13:09.044Z,25.00
2023-03-22T02:15:52.704Z,20.00
2023-03-22T02:19:31.814Z,22.80
2023-03-22T02:22:06.639Z,19.80
2023-03-22T02:24:45.926Z,21.80
2023-03-22T02:27:25.856Z,24.80
2023-03-22T02:30:18.221Z,21.10
2023-03-22T02:32:58.757Z,22.00
2023-03-22T02:36:12.728Z,17.90
2023-03-22T02:39:04.909Z,22.50
2023-03-22T02:42:06.620Z,20.30
2023-03-22T02:44:41.048Z,23.80
2023-03-22T02:47:12.114Z,31.30
2023-03-22T02:49:47.768Z,25.40
2023-03-22T02:52:27.184Z,24.50
2023-03-22T02:55:18.478Z,28.20
2023-03-22T02:58:00.305Z,28.40
2023-03-22T03:00:31.182Z,31.10
2023-03-22T03:03:11.408Z,30.30
2023-03-22T03:05:43.579Z,26.50
2023-03-22T03:08:16.530Z,26.40
2023-03-22T03:10:46.312Z,24.40
2023-03-22T03:13:17.278Z,26.50
2023-03-22T03:18:32.537Z,17.60
2023-03-22T03:21:45.307Z,18.80
2023-03-22T03:24:39.957Z,20.50
2023-03-22T03:27:23.029Z,19.20
2023-03-22T03:30:11.601Z,20.50
2023-03-22T03:32:52.714Z,22.20
2023-03-22T03:37:57.698Z,25.90
2023-03-22T03:40:37.758Z,19.90
2023-03-22T03:43:07.306Z,22.80
2023-03-22T03:45:37.268Z,20.20
2023-03-22T03:48:11.828Z,24.80
2023-03-22T03:50:40.356Z,21.60
2023-03-22T03:53:08.916Z,21.00
2023-03-22T03:55:37.788Z,23.30
2023-03-22T03:58:06.295Z,21.20
2023-03-22T04:00:34.416Z,25.80
2023-03-22T04:03:31.830Z,22.70
2023-03-22T04:06:19.921Z,25.40
2023-03-22T04:08:53.853Z,23.40
2023-03-22T04:11:25.634Z,17.70
2023-03-22T04:13:56.984Z,25.10
2023-03-22T04:16:25.186Z,22.50
2023-03-22T04:18:53.831Z,18.50
2023-03-22T04:21:22.939Z,19.90
2023-03-22T04:23:57.209Z,26.30
2023-03-22T04:26:26.784Z,29.90
2023-03-22T04:29:14.398Z,34.20
2023-03-22T04:31:45.805Z,36.40
2023-03-22T04:34:49.310Z,33.80
2023-03-22T04:37:20.054Z,31.90
2023-03-22T04:39:54.455Z,28.80
2023-03-22T04:42:59.008Z,24.70
2023-03-22T04:45:37.543Z,24.60
2023-03-22T04:48:07.941Z,32.20
2023-03-22T04:50:38.538Z,30.10
2023-03-22T04:53:08.191Z,27.20
2023-03-22T04:55:36.186Z,28.40
2023-03-22T04:58:04.449Z,25.30
2023-03-22T05:00:32.354Z,23.70
2023-03-22T05:03:04.091Z,29.20
2023-03-22T05:05:40.935Z,26.50
2023-03-22T05:08:08.950Z,28.40
2023-03-22T05:10:41.175Z,32.40
2023-03-22T05:13:09.900Z,38.30
2023-03-22T05:15:42.744Z,102.40
2023-03-22T05:18:14.434Z,97.10
2023-03-22T05:20:43.609Z,80.00
2023-03-22T05:23:21.136Z,50.60
2023-03-22T05:25:53.538Z,45.00
2023-03-22T05:28:22.288Z,35.20
2023-03-22T05:31:11.950Z,27.90
2023-03-22T05:33:48.514Z,24.80
2023-03-22T05:36:20.512Z,30.50
2023-03-22T05:39:09.088Z,29.70
2023-03-22T05:41:37.249Z,24.40
2023-03-22T05:44:05.658Z,34.50
2023-03-22T05:46:34.500Z,30.30
2023-03-22T05:49:26.910Z,41.30
2023-03-22T05:51:55.303Z,29.30
2023-03-22T05:54:25.447Z,33.30
2023-03-22T05:56:55.787Z,31.40
2023-03-22T05:59:24.204Z,34.70
2023-03-22T06:01:52.756Z,30.50
2023-03-22T06:04:23.657Z,29.30
2023-03-22T06:06:56.514Z,29.50
2023-03-22T06:09:43.066Z,27.60
2023-03-22T06:12:17.392Z,29.10
2023-03-22T06:14:48.489Z,34.40
2023-03-22T06:17:32.853Z,36.60
2023-03-22T06:20:00.751Z,27.70
2023-03-22T06:22:30.626Z,27.10
2023-03-22T06:24:59.133Z,23.80
2023-03-22T06:27:35.598Z,25.90
2023-03-22T06:30:04.490Z,24.20
2023-03-22T06:32:34.998Z,27.20
2023-03-22T06:35:04.721Z,24.30
2023-03-22T06:37:32.772Z,20.60
2023-03-22T06:40:01.032Z,24.10
2023-03-22T06:42:31.039Z,25.10
2023-03-22T06:45:09.666Z,20.60
2023-03-22T06:47:40.024Z,22.30
2023-03-22T06:50:27.377Z,20.80
2023-03-22T06:53:08.792Z,26.10
2023-03-22T06:55:36.776Z,26.30
2023-03-22T06:58:22.269Z,21.30
2023-03-22T07:00:50.217Z,26.80
2023-03-22T07:03:19.680Z,26.10
2023-03-22T07:05:51.977Z,25.60
2023-03-22T07:08:19.988Z,33.40
2023-03-22T07:10:51.724Z,29.50
2023-03-22T07:13:22.233Z,27.00
2023-03-22T07:15:56.761Z,23.40
2023-03-22T07:18:35.962Z,26.90
2023-03-22T07:21:04.122Z,27.80
2023-03-22T07:23:32.497Z,28.20
2023-03-22T07:26:06.407Z,24.30
2023-03-22T07:28:35.813Z,26.40
2023-03-22T07:31:07.908Z,28.20
2023-03-22T07:33:45.446Z,27.40
2023-03-22T07:36:13.428Z,21.60
2023-03-22T07:38:42.010Z,22.40
2023-03-22T07:41:14.062Z,19.50
2023-03-22T07:44:04.822Z,18.00
2023-03-22T07:46:43.717Z,19.10
2023-03-22T07:49:37.810Z,18.80
2023-03-22T07:52:10.983Z,18.10
2023-03-22T07:54:39.161Z,18.10
2023-03-22T07:57:08.689Z,22.10
2023-03-22T07:59:41.425Z,20.00
2023-03-22T08:02:11.230Z,18.20
2023-03-22T08:04:43.668Z,20.90
2023-03-22T08:07:18.672Z,15.90
2023-03-22T08:09:47.431Z,15.90
2023-03-22T08:12:16.186Z,11.60
2023-03-22T08:14:50.580Z,12.80
2023-03-22T08:17:21.321Z,10.90
2023-03-22T08:19:50.177Z,11.20
2023-03-22T08:22:29.709Z,10.00
2023-03-22T08:25:17.996Z,11.40
2023-03-22T08:27:46.343Z,12.20
2023-03-22T08:30:16.110Z,10.70
2023-03-22T08:32:46.457Z,9.40
2023-03-22T08:35:14.631Z,10.00
2023-03-22T08:37:43.031Z,11.80
2023-03-22T08:40:12.145Z,10.50
2023-03-22T08:42:49.067Z,12.40
2023-03-22T08:47:51.260Z,9.20
2023-03-22T08:50:23.435Z,8.20
2023-03-22T08:52:58.104Z,10.60
2023-03-22T08:55:35.529Z,7.20
2023-03-22T08:58:13.758Z,12.50
2023-03-22T09:01:02.514Z,8.80
2023-03-22T09:03:48.979Z,6.20
2023-03-22T09:06:17.006Z,11.30
2023-03-22T09:08:45.726Z,8.80
2023-03-22T09:11:17.808Z,4.90
2023-03-22T09:13:48.848Z,6.00
2023-03-22T09:16:17.931Z,7.40
2023-03-22T09:18:46.801Z,6.10
2023-03-22T09:21:19.161Z,7.90
2023-03-22T09:24:14.204Z,7.80
2023-03-22T09:26:47.570Z,5.20
2023-03-22T09:29:19.670Z,4.20
2023-03-22T09:31:49.106Z,4.00
2023-03-22T09:34:23.309Z,4.30
2023-03-22T09:36:55.764Z,4.40
2023-03-22T09:39:28.786Z,4.70
2023-03-22T09:42:02.481Z,8.20
2023-03-22T09:44:37.597Z,5.50
2023-03-22T09:47:15.571Z,6.20
2023-03-22T09:49:53.896Z,5.50
2023-03-22T09:52:22.785Z,4.40
2023-03-22T09:54:52.868Z,6.50
2023-03-22T09:57:37.598Z,5.10
2023-03-22T10:00:21.788Z,6.40
2023-03-22T10:02:56.294Z,4.70
2023-03-22T10:05:33.250Z,4.00
2023-03-22T10:08:35.304Z,7.10
2023-03-22T10:11:10.082Z,4.00
2023-03-22T10:13:50.147Z,3.00
2023-03-22T10:16:33.367Z,5.40
2023-03-22T10:19:13.372Z,3.10
2023-03-22T10:21:41.963Z,4.30
2023-03-22T10:24:18.297Z,3.40
2023-03-22T10:26:47.898Z,3.60
2023-03-22T10:29:38.518Z,5.90
2023-03-22T10:32:25.188Z,3.10
2023-03-22T10:34:53.094Z,2.10
2023-03-22T10:37:27.021Z,3.50
2023-03-22T10:39:58.258Z,2.50
2023-03-22T10:42:29.985Z,4.90
2023-03-22T10:45:01.892Z,3.20
2023-03-22T10:47:41.449Z,8.40
2023-03-22T10:50:18.832Z,6.30
2023-03-22T10:53:11.398Z,7.20
2023-03-22T10:55:44.186Z,4.80
2023-03-22T10:58:18.150Z,4.30
2023-03-22T11:00:56.972Z,5.60
2023-03-22T11:03:49.479Z,6.30
2023-03-22T11:06:27.223Z,5.90
2023-03-22T11:09:12.614Z,4.50
2023-03-22T11:11:57.607Z,4.60
2023-03-22T11:14:31.551Z,10.70
2023-03-22T11:17:07.957Z,18.20
2023-03-22T11:19:42.317Z,5.20
2023-03-22T11:22:23.027Z,4.20
2023-03-22T11:24:52.032Z,3.70
2023-03-22T11:27:24.617Z,5.00
2023-03-22T11:29:57.908Z,10.40
2023-03-22T11:32:35.490Z,4.20
2023-03-22T11:35:27.245Z,7.00
2023-03-22T11:37:56.664Z,6.50
2023-03-22T11:40:34.022Z,9.10
2023-03-22T11:43:19.556Z,13.00
2023-03-22T11:45:53.459Z,4.30
2023-03-22T11:48:24.637Z,4.10
2023-03-22T11:51:04.735Z,4.00
2023-03-22T11:53:37.244Z,5.50
2023-03-22T11:56:07.715Z,4.60
2023-03-22T11:58:38.435Z,4.10
2023-03-22T12:01:11.073Z,12.40
2023-03-22T12:03:43.303Z,11.10
2023-03-22T12:06:33.610Z,4.90
2023-03-22T12:09:23.441Z,4.20
2023-03-22T12:11:55.862Z,5.10
2023-03-22T12:14:26.462Z,4.20
2023-03-22T12:17:33.150Z,13.10
2023-03-22T12:20:07.164Z,22.40
2023-03-22T12:22:41.737Z,6.80
2023-03-22T12:25:17.487Z,7.40
2023-03-22T12:27:51.156Z,8.40
2023-03-22T12:30:33.848Z,9.80
2023-03-22T12:33:06.839Z,26.00
2023-03-22T12:35:39.378Z,4.60
2023-03-22T12:38:19.626Z,3.90
2023-03-22T12:40:53.707Z,11.00
2023-03-22T12:43:45.871Z,5.50
2023-03-22T12:46:25.721Z,5.80
2023-03-22T12:49:13.488Z,5.10
2023-03-22T12:51:44.160Z,8.00
2023-03-22T12:56:46.015Z,4.90
2023-03-22T12:59:23.460Z,11.80
2023-03-22T13:02:32.836Z,4.30
2023-03-22T13:05:06.763Z,6.70
2023-03-22T13:07:51.596Z,4.10
2023-03-22T13:10:36.308Z,6.20
2023-03-22T13:13:12.980Z,7.20
2023-03-22T13:15:56.110Z,4.20
2023-03-22T13:18:37.811Z,6.40
2023-03-22T13:21:21.324Z,9.80
2023-03-22T13:24:10.029Z,6.70
2023-03-22T13:26:52.976Z,7.70
2023-03-22T13:29:25.428Z,5.90
2023-03-22T13:32:02.095Z,7.40
2023-03-22T13:34:36.259Z,6.30
2023-03-22T13:37:22.978Z,9.30
2023-03-22T13:39:52.138Z,7.60
2023-03-22T13:42:22.491Z,4.90
2023-03-22T13:44:59.202Z,5.50
2023-03-22T13:47:36.307Z,6.00
2023-03-22T13:50:31.583Z,6.40
2023-03-22T13:53:05.873Z,6.80
2023-03-22T13:55:51.905Z,5.10
2023-03-22T13:58:36.246Z,11.90
2023-03-22T14:01:28.205Z,6.30
2023-03-22T14:04:03.382Z,4.80
2023-03-22T14:06:35.359Z,8.00
2023-03-22T14:09:22.932Z,3.80
2023-03-22T14:12:02.140Z,2.80
2023-03-22T14:14:36.736Z,3.10
2023-03-22T14:17:18.477Z,4.80
2023-03-22T14:19:47.777Z,6.70
